NY01 weather

Knowlesville Airport
Knowlesville, New York, United States

Public forecast

Using degrees Fahrenheit for public forecast. Weather courtesy of forecast.io.

METAR (pilot weather report)

Closest report is Buffalo Niagara International Airport, 24.9 nm (46.0 km) SW. Retrieved 2019/06/25 00:54 UTC (53 minutes ago):

KBUF 250054Z 21003KT 10SM FEW065 FEW150 SCT200 BKN280 26/18 A2968 RMK AO2 SLP046 T02610183

TAF (pilot weather forecast)

Forecast is more than 12 hours old.

Closest forecast is Buffalo Niagara International Airport, 24.9 nm (46.0 km) SW. Retrieved 2019/06/24 00:34 UTC (1 day ago):

TAF KBUF 242332Z 2500/2524 20004KT P6SM BKN060 FM250300 21004KT P6SM -SHRA OVC025 FM250600 22008KT 5SM BR OVC007 FM251200 24016G24KT P6SM OVC020 FM251800 24020G32KT P6SM SCT035